Time;durP1;ratioP1;P1;durP2;ratioP2;P2;SDS_P1;SDS_P2;PMS_P1;PMS_P2;Temp;Humidity;BMP_temperature;BMP_pressure;BME280_temperature;BME280_humidity;BME280_pressure;Samples;Min_cycle;Max_cycle;Signal;HPM_P1;HPM_P2
2021/03/01 00:01:47;;;;;;;24.53;13.47;;;;;;;3.21;82.26;102851.28;5048115;28;20198;-65
2021/03/01 00:04:13;;;;;;;22.23;13.20;;;;;;;3.23;82.38;102846.00;5050704;28;20630;-65
2021/03/01 00:06:39;;;;;;;21.43;12.83;;;;;;;3.24;82.96;102847.75;5044127;28;20225;-65
2021/03/01 00:09:06;;;;;;;26.43;13.07;;;;;;;3.26;82.93;102844.25;5052212;28;20212;-65
2021/03/01 00:11:33;;;;;;;22.37;13.57;;;;;;;3.28;82.55;102846.91;5050593;28;20225;-64
2021/03/01 00:13:59;;;;;;;19.47;12.50;;;;;;;3.30;83.14;102842.50;5042840;28;20210;-64
2021/03/01 00:16:25;;;;;;;22.63;12.33;;;;;;;3.31;83.07;102828.47;5048711;28;20259;-64
2021/03/01 00:18:51;;;;;;;20.33;11.83;;;;;;;3.33;83.47;102842.53;5050027;28;20209;-64
2021/03/01 00:21:17;;;;;;;23.77;13.07;;;;;;;3.30;83.06;102830.22;5049057;28;20202;-64
2021/03/01 00:23:43;;;;;;;23.20;12.10;;;;;;;3.27;83.10;102827.56;5049186;28;20213;-65
2021/03/01 00:26:10;;;;;;;18.73;11.90;;;;;;;3.26;83.46;102830.22;5047448;28;20272;-64
2021/03/01 00:28:36;;;;;;;20.27;13.33;;;;;;;3.27;83.43;102827.56;5049474;28;20205;-64
2021/03/01 00:31:02;;;;;;;19.40;12.67;;;;;;;3.28;83.57;102824.06;5051273;28;20259;-64
2021/03/01 00:33:28;;;;;;;20.93;12.60;;;;;;;3.29;83.07;102825.81;5049922;28;20201;-65
2021/03/01 00:35:54;;;;;;;19.73;13.00;;;;;;;3.30;83.73;102830.22;5041634;28;20228;-65
2021/03/01 00:38:20;;;;;;;25.50;14.47;;;;;;;3.32;83.38;102823.22;5039770;28;20297;-65
2021/03/01 00:40:46;;;;;;;21.97;13.50;;;;;;;3.33;83.03;102827.59;5038211;28;20241;-65
2021/03/01 00:43:13;;;;;;;27.03;13.77;;;;;;;3.35;83.78;102831.13;5034642;28;20202;-64
2021/03/01 00:45:40;;;;;;;22.40;12.97;;;;;;;3.37;83.68;102839.91;5038540;28;20230;-64
2021/03/01 00:48:06;;;;;;;20.27;13.00;;;;;;;3.40;84.06;102833.75;5043530;28;20285;-64
2021/03/01 00:50:32;;;;;;;19.67;12.10;;;;;;;3.41;83.41;102833.72;5040993;28;20261;-65
2021/03/01 00:52:58;;;;;;;22.00;12.83;;;;;;;3.43;84.01;102834.63;5044487;28;20222;-65
2021/03/01 00:55:24;;;;;;;20.63;12.53;;;;;;;3.45;83.61;102835.50;5049326;28;20259;-65
2021/03/01 00:57:50;;;;;;;21.63;13.10;;;;;;;3.46;83.51;102829.34;5034648;28;20237;-65
2021/03/01 01:00:18;;;;;;;19.43;12.07;;;;;;;3.47;84.43;102839.03;5045289;28;20203;-64
2021/03/01 01:02:45;;;;;;;20.97;12.13;;;;;;;3.49;84.18;102828.50;5042953;28;20251;-64
2021/03/01 01:05:12;;;;;;;21.90;12.80;;;;;;;3.51;84.70;102826.72;5039015;28;20232;-65
2021/03/01 01:07:38;;;;;;;25.67;13.67;;;;;;;3.53;84.18;102832.88;5039870;28;20599;-65
2021/03/01 01:10:06;;;;;;;20.97;11.50;;;;;;;3.55;84.63;102835.53;5046709;28;20589;-65
2021/03/01 01:12:33;;;;;;;22.10;11.77;;;;;;;3.56;83.75;102834.66;5040263;28;20221;-65
2021/03/01 01:14:59;;;;;;;21.53;12.10;;;;;;;3.57;84.20;102832.03;5043087;28;20209;-64
2021/03/01 01:17:26;;;;;;;23.97;12.90;;;;;;;3.59;84.90;102839.91;5041411;28;20201;-65
2021/03/01 01:19:52;;;;;;;21.00;11.43;;;;;;;3.60;84.76;102842.53;5044180;28;20204;-65
2021/03/01 01:22:18;;;;;;;20.27;12.17;;;;;;;3.61;84.39;102839.03;5040568;28;20210;-65
2021/03/01 01:24:44;;;;;;;23.00;13.13;;;;;;;3.62;84.43;102839.91;5045726;28;20205;-64
2021/03/01 01:27:10;;;;;;;24.40;12.93;;;;;;;3.64;84.96;102840.78;5042935;28;20221;-64
2021/03/01 01:29:36;;;;;;;21.50;12.80;;;;;;;3.65;84.69;102834.63;5045697;28;20667;-65
2021/03/01 01:32:03;;;;;;;22.13;11.63;;;;;;;3.67;84.33;102835.53;5040157;28;20287;-65
2021/03/01 01:34:30;;;;;;;21.37;12.30;;;;;;;3.68;84.47;102832.00;5044851;28;20209;-65
2021/03/01 01:36:56;;;;;;;19.90;12.43;;;;;;;3.69;84.58;102823.22;5039414;28;20222;-65
2021/03/01 01:39:22;;;;;;;21.60;11.90;;;;;;;3.70;84.99;102815.31;5044373;28;20228;-65
2021/03/01 01:41:48;;;;;;;20.13;12.37;;;;;;;3.71;84.63;102822.34;5040519;28;20204;-64
2021/03/01 01:44:14;;;;;;;21.47;11.93;;;;;;;3.72;85.12;102818.84;5041947;28;20572;-64
2021/03/01 01:46:40;;;;;;;22.83;13.13;;;;;;;3.73;84.62;102817.97;5041212;28;20229;-64
2021/03/01 01:49:06;;;;;;;20.90;11.50;;;;;;;3.75;85.07;102815.31;5040413;28;20206;-64
2021/03/01 01:51:33;;;;;;;25.23;12.53;;;;;;;3.76;84.87;102806.53;5045181;28;20237;-64
2021/03/01 01:54:00;;;;;;;23.07;11.67;;;;;;;3.76;84.70;102806.53;5045023;28;20202;-65
2021/03/01 01:56:27;;;;;;;22.63;11.97;;;;;;;3.77;84.43;102806.50;5040087;28;20299;-64
2021/03/01 01:58:53;;;;;;;20.03;11.23;;;;;;;3.78;85.07;102804.75;5043381;28;20206;-65
2021/03/01 02:01:20;;;;;;;19.27;11.73;;;;;;;3.78;84.93;102797.72;5041935;28;20229;-65
2021/03/01 02:03:50;;;;;;;21.13;12.30;;;;;;;3.80;85.19;102798.59;5040075;28;20205;-65
2021/03/01 02:06:43;;;;;;;21.67;11.77;;;;;;;3.80;84.49;102797.72;5041670;28;20769;-65
2021/03/01 02:09:25;;;;;;;21.10;11.27;;;;;;;3.81;85.23;102804.75;5045447;28;20263;-66
2021/03/01 02:12:05;;;;;;;19.63;11.83;;;;;;;3.82;84.32;102806.50;5035775;28;20222;-65
2021/03/01 02:14:43;;;;;;;21.93;11.80;;;;;;;3.83;85.33;102803.00;5043219;28;20209;-64
2021/03/01 02:17:09;;;;;;;18.20;11.67;;;;;;;3.82;84.93;102801.25;5043521;28;20237;-65
2021/03/01 02:19:37;;;;;;;20.47;12.20;;;;;;;3.83;84.51;102808.28;5038212;28;20209;-65
2021/03/01 02:22:04;;;;;;;19.27;11.77;;;;;;;3.84;84.53;102802.13;5046346;28;20216;-65
2021/03/01 02:24:37;;;;;;;20.10;12.23;;;;;;;3.83;84.86;102797.72;5045410;28;20206;-64
2021/03/01 02:27:05;;;;;;;23.33;12.10;;;;;;;3.86;84.53;102799.50;5046632;28;20229;-64
2021/03/01 02:29:34;;;;;;;21.97;12.60;;;;;;;3.86;85.34;102796.84;5049232;28;20667;-64
2021/03/01 02:32:04;;;;;;;22.07;12.23;;;;;;;3.85;84.52;102788.06;5045088;28;20279;-65
2021/03/01 02:34:33;;;;;;;21.33;11.80;;;;;;;3.87;85.37;102793.34;5043614;28;20590;-65
2021/03/01 02:37:03;;;;;;;23.10;12.60;;;;;;;3.88;85.29;102790.69;5045501;28;20495;-65
2021/03/01 02:39:33;;;;;;;22.53;13.30;;;;;;;3.88;84.56;102784.56;5040174;28;20292;-64
2021/03/01 02:42:00;;;;;;;23.23;13.37;;;;;;;3.89;84.72;102786.31;5044947;28;20247;-65
2021/03/01 02:44:27;;;;;;;23.20;12.93;;;;;;;3.89;84.67;102791.59;5039349;28;20206;-64
2021/03/01 02:46:53;;;;;;;28.23;13.70;;;;;;;3.89;84.59;102788.94;5045473;28;20575;-64
2021/03/01 02:49:20;;;;;;;28.60;13.37;;;;;;;3.88;85.20;102785.44;5039763;28;20214;-65
2021/03/01 02:51:50;;;;;;;28.07;13.90;;;;;;;3.89;85.30;102781.91;5047694;28;20232;-64
2021/03/01 02:54:18;;;;;;;25.50;12.80;;;;;;;3.90;84.66;102786.31;5048208;28;20240;-65
2021/03/01 02:56:47;;;;;;;26.57;13.13;;;;;;;3.89;85.12;102789.81;5047312;28;20244;-65
2021/03/01 02:59:13;;;;;;;19.87;11.07;;;;;;;3.90;85.14;102794.22;5036364;28;20242;-65
2021/03/01 03:01:41;;;;;;;22.93;12.53;;;;;;;3.89;85.21;102787.19;5035951;28;20210;-65
2021/03/01 03:04:08;;;;;;;26.90;13.47;;;;;;;3.90;85.58;102783.69;5052760;28;20639;-64
2021/03/01 03:06:36;;;;;;;22.10;13.07;;;;;;;3.91;84.74;102782.78;5051926;28;20225;-65
2021/03/01 03:09:06;;;;;;;26.17;13.57;;;;;;;3.92;84.73;102779.28;5047673;28;20682;-65
2021/03/01 03:11:33;;;;;;;21.23;12.60;;;;;;;3.91;84.66;102784.56;5041760;28;20241;-65
2021/03/01 03:14:02;;;;;;;23.13;13.37;;;;;;;3.91;84.71;102780.16;5042472;28;20221;-64
2021/03/01 03:16:29;;;;;;;23.53;12.67;;;;;;;3.90;84.92;102781.03;5037701;28;20226;-64
2021/03/01 03:18:56;;;;;;;27.00;12.27;;;;;;;3.91;85.49;102780.16;5033571;28;20202;-65
2021/03/01 03:21:23;;;;;;;23.23;12.60;;;;;;;3.92;85.69;102783.69;5039643;28;20210;-65
2021/03/01 03:23:49;;;;;;;23.80;13.23;;;;;;;3.92;85.66;102789.81;5038048;28;20256;-64
2021/03/01 03:26:16;;;;;;;24.47;13.43;;;;;;;3.91;84.66;102780.16;5041435;28;20279;-65
2021/03/01 03:28:42;;;;;;;21.33;12.37;;;;;;;3.93;85.39;102786.31;5048029;28;20205;-64
2021/03/01 03:31:09;;;;;;;23.07;12.67;;;;;;;3.95;84.97;102792.44;5675749;22;20193;-64
2021/03/01 03:33:36;;;;;;;23.37;13.20;;;;;;;3.95;84.93;102789.78;5045559;28;20221;-65
2021/03/01 03:36:03;;;;;;;21.60;12.33;;;;;;;3.95;85.16;102787.16;5051174;28;20205;-65
2021/03/01 03:38:32;;;;;;;21.70;12.53;;;;;;;3.96;84.87;102788.91;5045214;28;20213;-64
2021/03/01 03:41:02;;;;;;;26.70;13.27;;;;;;;3.96;84.82;102793.31;5038011;28;20248;-64
2021/03/01 03:43:29;;;;;;;24.93;13.33;;;;;;;3.96;85.03;102791.56;5027696;28;20195;-64
2021/03/01 03:45:56;;;;;;;21.63;12.83;;;;;;;3.96;85.34;102798.56;5032671;28;20202;-65
2021/03/01 03:48:26;;;;;;;24.40;14.17;;;;;;;3.96;85.34;102794.19;5028723;28;20210;-65
2021/03/01 03:50:53;;;;;;;26.30;13.37;;;;;;;3.96;84.98;102794.19;5025696;28;20218;-64
2021/03/01 03:53:24;;;;;;;25.73;13.07;;;;;;;3.97;84.63;102800.34;5029208;28;20219;-64
2021/03/01 03:55:52;;;;;;;24.00;12.37;;;;;;;3.97;84.73;102803.84;5032771;28;20244;-65
2021/03/01 03:58:22;;;;;;;23.20;13.10;;;;;;;3.98;84.74;102802.09;5018626;28;20214;-64
2021/03/01 04:00:50;;;;;;;26.30;13.97;;;;;;;3.99;85.15;102798.56;5022770;28;20226;-65
2021/03/01 04:03:18;;;;;;;24.07;12.77;;;;;;;3.99;85.10;102803.84;5032288;28;20198;-65
2021/03/01 04:05:46;;;;;;;25.47;13.50;;;;;;;4.00;84.90;102813.53;5026752;28;20333;-64
2021/03/01 04:08:15;;;;;;;24.20;13.97;;;;;;;4.00;85.34;102811.75;5020405;28;20211;-65
2021/03/01 04:10:44;;;;;;;22.70;12.70;;;;;;;4.00;84.63;102802.97;5031568;28;20218;-65
2021/03/01 04:13:12;;;;;;;24.53;12.43;;;;;;;4.01;84.53;102808.25;5030129;28;20272;-65
2021/03/01 04:15:41;;;;;;;22.93;12.93;;;;;;;4.02;84.96;102806.50;5022823;28;20211;-65
2021/03/01 04:18:09;;;;;;;20.53;12.77;;;;;;;4.03;84.44;102806.50;5025647;28;20209;-65
2021/03/01 04:20:37;;;;;;;25.70;13.07;;;;;;;4.02;84.65;102804.72;5028651;28;20241;-65
2021/03/01 04:23:06;;;;;;;24.63;13.20;;;;;;;4.05;85.40;102803.84;5030956;28;20206;-65
2021/03/01 04:25:33;;;;;;;26.13;13.43;;;;;;;4.04;84.51;102796.81;5031225;28;20211;-65
2021/03/01 04:28:01;;;;;;;23.03;12.93;;;;;;;4.03;84.63;102798.56;5030485;28;20668;-65
2021/03/01 04:30:28;;;;;;;24.27;12.23;;;;;;;4.03;84.49;102800.34;5029189;28;20236;-62
2021/03/01 04:32:55;;;;;;;23.63;13.17;;;;;;;4.03;84.82;102802.97;5027123;28;20752;-65
2021/03/01 04:35:22;;;;;;;21.90;12.60;;;;;;;4.03;85.37;102808.25;5030819;28;20206;-65
2021/03/01 04:37:49;;;;;;;25.57;13.17;;;;;;;4.02;85.13;102806.50;5028658;28;20203;-64
2021/03/01 04:40:16;;;;;;;24.67;13.83;;;;;;;4.02;84.78;102806.50;5023221;28;20238;-65
2021/03/01 04:42:45;;;;;;;24.90;13.43;;;;;;;4.02;85.24;102810.00;5028856;28;20217;-65
2021/03/01 04:45:12;;;;;;;23.37;13.20;;;;;;;4.00;84.72;102809.13;5026720;28;20687;-64
2021/03/01 04:47:40;;;;;;;24.97;14.03;;;;;;;3.98;84.70;102807.38;5029047;28;20629;-65
2021/03/01 04:50:07;;;;;;;23.60;13.60;;;;;;;3.98;84.46;102812.63;5029988;28;20232;-64
2021/03/01 04:52:34;;;;;;;20.27;12.53;;;;;;;3.99;84.67;102820.56;5017506;28;20234;-65
2021/03/01 04:55:01;;;;;;;24.37;13.57;;;;;;;3.98;84.77;102813.53;5027850;28;20233;-65
2021/03/01 04:57:29;;;;;;;23.87;14.13;;;;;;;3.99;85.19;102810.00;5025086;28;20305;-65
2021/03/01 04:59:57;;;;;;;26.93;14.30;;;;;;;3.99;85.15;102807.38;5022981;28;20198;-63
2021/03/01 05:02:23;;;;;;;24.17;12.90;;;;;;;4.01;85.25;102802.97;5025569;28;20664;-66
2021/03/01 05:04:49;;;;;;;26.10;13.57;;;;;;;4.03;84.54;102810.88;5031458;28;20202;-65
2021/03/01 05:07:16;;;;;;;26.73;14.70;;;;;;;4.01;84.47;102805.59;5025441;28;20206;-65
2021/03/01 05:09:42;;;;;;;27.80;14.20;;;;;;;4.02;85.31;102811.75;5019989;28;20214;-64
2021/03/01 05:12:09;;;;;;;30.87;15.07;;;;;;;4.02;84.77;102804.72;5026699;28;20226;-65
2021/03/01 05:14:36;;;;;;;31.33;15.33;;;;;;;4.03;85.20;102811.75;5026639;28;20202;-66
2021/03/01 05:17:02;;;;;;;28.07;15.10;;;;;;;4.02;84.38;102815.28;5024413;28;20217;-64
2021/03/01 05:19:30;;;;;;;28.00;15.47;;;;;;;4.04;84.62;102817.91;5015731;28;20283;-65
2021/03/01 05:21:56;;;;;;;30.17;15.53;;;;;;;4.02;85.16;102812.63;5025981;28;20591;-65
2021/03/01 05:24:22;;;;;;;30.50;15.47;;;;;;;4.01;85.26;102816.16;5027930;28;20202;-66
2021/03/01 05:26:48;;;;;;;28.93;14.37;;;;;;;4.02;84.66;102811.75;5019660;28;20301;-65
2021/03/01 05:29:14;;;;;;;29.53;16.53;;;;;;;4.01;85.29;102818.78;5014432;28;20203;-65
2021/03/01 05:31:41;;;;;;;33.60;16.67;;;;;;;4.01;84.42;102817.91;5017819;28;20283;-64
2021/03/01 05:34:07;;;;;;;28.03;15.93;;;;;;;4.00;84.38;102814.41;5026767;28;20214;-65
2021/03/01 05:36:33;;;;;;;25.33;14.87;;;;;;;3.99;84.95;102814.41;5023299;28;20202;-64
2021/03/01 05:38:59;;;;;;;28.00;16.23;;;;;;;3.96;84.92;102810.00;5025805;28;20203;-65
2021/03/01 05:41:27;;;;;;;27.53;14.97;;;;;;;3.94;84.39;102808.28;5021314;28;20230;-64
2021/03/01 05:43:53;;;;;;;28.07;15.83;;;;;;;3.90;84.37;102809.16;5021347;28;20217;-65
2021/03/01 05:46:22;;;;;;;33.93;17.67;;;;;;;3.87;84.79;102815.31;5020531;28;20734;-64
2021/03/01 05:48:49;;;;;;;32.50;18.00;;;;;;;3.86;84.08;102813.53;5015793;28;20710;-64
2021/03/01 05:51:16;;;;;;;33.27;18.27;;;;;;;3.86;84.66;102808.28;5018634;28;20699;-64
2021/03/01 05:53:44;;;;;;;32.77;17.20;;;;;;;3.87;84.28;102806.53;5017813;28;20222;-64
2021/03/01 05:56:10;;;;;;;27.10;14.63;;;;;;;3.87;83.65;102807.41;5016926;28;20582;-65
2021/03/01 05:58:36;;;;;;;27.67;14.40;;;;;;;3.86;83.66;102803.00;5021496;28;20205;-65
2021/03/01 06:01:04;;;;;;;24.17;14.53;;;;;;;3.83;83.65;102803.88;5018751;28;20601;-63
2021/03/01 06:03:31;;;;;;;26.17;14.43;;;;;;;3.80;83.37;102803.88;5015509;28;20214;-64
2021/03/01 06:05:59;;;;;;;25.90;13.13;;;;;;;3.77;83.52;102800.38;5019596;28;20209;-65
2021/03/01 06:08:25;;;;;;;22.50;13.50;;;;;;;3.76;83.68;102811.81;5019585;28;20209;-64
2021/03/01 06:10:56;;;;;;;27.40;14.83;;;;;;;3.74;83.00;102803.03;5016915;28;20226;-65
2021/03/01 06:13:22;;;;;;;26.47;15.87;;;;;;;3.72;82.84;102821.47;5020390;28;20222;-65
2021/03/01 06:15:48;;;;;;;29.80;16.20;;;;;;;3.72;82.67;102816.19;5021474;28;20214;-65
2021/03/01 06:18:15;;;;;;;29.13;16.00;;;;;;;3.72;82.98;102799.50;5025353;28;20214;-65
2021/03/01 06:20:42;;;;;;;35.70;17.63;;;;;;;3.75;82.80;102812.69;5019912;28;20344;-65
2021/03/01 06:23:09;;;;;;;32.53;17.77;;;;;;;3.75;83.06;102808.31;5019257;28;20209;-65
2021/03/01 06:25:35;;;;;;;37.43;18.73;;;;;;;3.76;82.45;102815.28;5017948;28;20202;-65
2021/03/01 06:28:03;;;;;;;38.73;18.73;;;;;;;3.78;82.78;102804.75;5015733;28;20206;-65
2021/03/01 06:30:31;;;;;;;40.03;19.53;;;;;;;3.79;82.78;102812.66;5025221;28;20233;-64
2021/03/01 06:33:07;;;;;;;35.57;19.13;;;;;;;3.82;81.86;102811.78;5024416;28;20711;-64
2021/03/01 06:35:35;;;;;;;40.93;20.60;;;;;;;3.84;81.98;102815.31;5022267;28;20214;-68
2021/03/01 06:38:35;;;;;;;41.50;19.53;;;;;;;3.87;82.06;102809.16;5027272;28;20221;-68
2021/03/01 06:41:13;;;;;;;36.67;18.07;;;;;;;3.89;81.68;102805.63;4999171;28;20234;-68
2021/03/01 06:43:52;;;;;;;40.23;19.23;;;;;;;3.91;81.95;102816.19;5000213;28;20214;-68
2021/03/01 06:46:17;;;;;;;37.17;18.57;;;;;;;3.93;82.31;102810.03;5013028;28;20667;-69
2021/03/01 06:48:44;;;;;;;42.27;19.90;;;;;;;3.95;81.41;102816.16;5023437;28;20220;-69
2021/03/01 06:51:10;;;;;;;40.20;20.30;;;;;;;3.97;81.85;102808.25;5014780;28;20618;-68
2021/03/01 06:53:38;;;;;;;42.17;20.87;;;;;;;3.98;81.41;102816.16;5021085;28;20248;-68
2021/03/01 06:56:07;;;;;;;45.00;22.00;;;;;;;3.99;81.84;102809.13;5017538;28;20739;-68
2021/03/01 06:58:34;;;;;;;45.90;22.27;;;;;;;3.99;81.83;102814.41;5020007;28;20218;-67
2021/03/01 07:01:12;;;;;;;42.37;22.03;;;;;;;3.98;81.25;102810.88;5017136;28;20234;-68
2021/03/01 07:03:39;;;;;;;44.73;23.43;;;;;;;3.98;81.80;102818.78;5018978;28;20281;-68
2021/03/01 07:06:07;;;;;;;43.77;22.00;;;;;;;3.98;81.29;102821.44;5023544;28;20214;-69
2021/03/01 07:08:45;;;;;;;44.70;22.37;;;;;;;3.98;81.06;102824.06;5017655;28;20206;-69
2021/03/01 07:11:24;;;;;;;45.37;23.00;;;;;;;3.98;81.30;102833.72;5019038;28;20241;-68
2021/03/01 07:13:50;;;;;;;40.90;20.00;;;;;;;3.97;81.43;102832.84;5016798;28;20229;-68
2021/03/01 07:16:17;;;;;;;44.67;22.27;;;;;;;3.97;80.64;102830.22;5016997;28;20203;-68
2021/03/01 07:18:44;;;;;;;50.27;23.63;;;;;;;3.98;80.84;102831.97;5021367;28;20214;-68
2021/03/01 07:21:11;;;;;;;52.57;25.37;;;;;;;3.95;81.05;102834.59;5019204;28;20238;-68
2021/03/01 07:23:40;;;;;;;57.43;27.53;;;;;;;3.96;80.82;102835.50;5016416;28;20653;-68
2021/03/01 07:26:07;;;;;;;60.23;26.33;;;;;;;3.97;80.21;102834.59;5016679;28;20206;-68
2021/03/01 07:28:36;;;;;;;67.30;28.90;;;;;;;3.97;81.02;102832.84;5017547;28;20213;-68
2021/03/01 07:31:03;;;;;;;60.53;28.03;;;;;;;3.97;80.12;102832.84;5014753;28;20403;-68
2021/03/01 07:33:29;;;;;;;62.77;27.60;;;;;;;3.98;80.58;102829.34;5016650;28;20229;-68
2021/03/01 07:35:57;;;;;;;59.40;28.90;;;;;;;3.98;80.30;102829.34;5014084;28;20209;-68
2021/03/01 07:38:23;;;;;;;63.30;28.87;;;;;;;3.97;80.70;102824.94;5016714;28;20210;-67
2021/03/01 07:40:50;;;;;;;64.27;28.87;;;;;;;3.95;80.42;102834.59;5017002;28;20226;-69
2021/03/01 07:43:18;;;;;;;68.07;29.33;;;;;;;3.97;79.64;102839.88;5016321;28;20194;-68
2021/03/01 07:45:45;;;;;;;67.10;30.27;;;;;;;3.96;80.22;102836.38;5014013;28;20446;-68
2021/03/01 07:48:12;;;;;;;65.90;28.00;;;;;;;3.98;79.76;102836.38;5015474;28;20211;-68
2021/03/01 07:50:41;;;;;;;66.70;29.93;;;;;;;3.97;79.27;102843.41;5017534;28;20257;-69
2021/03/01 07:53:58;;;;;;;68.30;30.53;;;;;;;3.96;79.02;102841.63;5015633;28;20767;-68
2021/03/01 07:56:48;;;;;;;59.80;27.13;;;;;;;3.95;79.39;102854.81;5016654;28;20699;-67
2021/03/01 07:59:32;;;;;;;52.50;24.93;;;;;;;3.94;79.32;102858.38;5017527;28;20264;-69
2021/03/01 08:02:21;;;;;;;57.20;28.30;;;;;;;3.92;79.67;102863.63;5016805;28;20589;-67
2021/03/01 08:04:47;;;;;;;55.83;26.00;;;;;;;3.92;78.96;102861.00;5010596;28;20276;-68
2021/03/01 08:07:14;;;;;;;52.37;25.00;;;;;;;3.91;79.40;102869.78;5011431;28;20221;-68
2021/03/01 08:09:45;;;;;;;52.30;25.17;;;;;;;3.90;78.75;102869.78;5016627;28;20669;-68
2021/03/01 08:12:13;;;;;;;57.30;26.83;;;;;;;3.90;79.25;102868.03;5016837;28;20223;-68
2021/03/01 08:14:59;;;;;;;57.27;24.53;;;;;;;3.93;78.50;102867.16;5012584;28;20199;-68
2021/03/01 08:17:33;;;;;;;49.33;24.17;;;;;;;3.93;78.90;102867.16;5011298;28;20207;-68
2021/03/01 08:20:20;;;;;;;51.53;25.43;;;;;;;3.94;78.37;102869.75;5030101;28;20221;-68
2021/03/01 08:23:17;;;;;;;47.50;22.70;;;;;;;3.96;78.50;102877.66;5026377;28;20271;-68
2021/03/01 08:26:06;;;;;;;44.53;22.03;;;;;;;3.97;77.96;102875.03;5024277;28;20267;-68
2021/03/01 08:28:51;;;;;;;49.20;22.03;;;;;;;3.99;77.99;102883.81;5024294;28;20215;-68
2021/03/01 08:31:38;;;;;;;47.50;21.37;;;;;;;3.98;78.26;102881.19;5014944;28;20233;-68
2021/03/01 08:34:25;;;;;;;48.00;22.83;;;;;;;3.99;78.27;102889.09;5013750;28;20613;-67
2021/03/01 08:36:51;;;;;;;43.93;23.20;;;;;;;4.00;78.49;102893.50;5014443;28;20210;-68
2021/03/01 08:40:03;;;;;;;42.37;21.47;;;;;;;4.01;78.35;102887.34;5011678;28;20727;-68
2021/03/01 08:42:56;;;;;;;46.77;23.43;;;;;;;4.02;77.61;102886.47;5016639;28;20371;-67
2021/03/01 08:45:25;;;;;;;42.10;21.27;;;;;;;4.03;77.94;102882.94;5012765;28;20203;-68
2021/03/01 08:47:52;;;;;;;41.07;22.60;;;;;;;4.05;78.09;102894.38;5016272;28;20199;-69
2021/03/01 08:50:24;;;;;;;42.70;21.47;;;;;;;4.06;77.21;102895.25;5011789;28;20735;-68
2021/03/01 08:52:50;;;;;;;39.00;18.93;;;;;;;4.09;77.62;102892.63;5011326;28;20218;-69
2021/03/01 08:55:19;;;;;;;34.93;16.87;;;;;;;4.12;77.33;102890.84;5015774;28;20696;-69
2021/03/01 08:57:56;;;;;;;36.63;18.33;;;;;;;4.15;78.05;102889.97;5015491;28;20199;-68
2021/03/01 09:00:23;;;;;;;32.30;17.80;;;;;;;4.17;77.32;102893.47;5012961;28;20221;-68
2021/03/01 09:02:49;;;;;;;23.67;14.33;;;;;;;4.16;77.48;102887.31;5016305;28;20244;-69
2021/03/01 09:05:17;;;;;;;28.40;14.57;;;;;;;4.16;77.05;102887.31;5015491;28;20210;-68
2021/03/01 09:07:44;;;;;;;21.90;12.87;;;;;;;4.17;77.27;102878.53;4985940;28;20198;-68
2021/03/01 09:10:10;;;;;;;29.97;15.20;;;;;;;4.18;77.47;102890.84;5013895;28;20233;-69
2021/03/01 09:12:37;;;;;;;23.73;12.47;;;;;;;4.22;77.42;102885.56;5015014;28;20708;-68
2021/03/01 09:15:05;;;;;;;21.20;12.43;;;;;;;4.25;77.45;102886.44;5020305;28;20660;-68
2021/03/01 09:17:31;;;;;;;23.67;13.27;;;;;;;4.25;77.13;102880.28;5023281;28;20206;-68
2021/03/01 09:19:58;;;;;;;28.00;14.57;;;;;;;4.27;76.81;102881.19;5019553;28;20731;-68
2021/03/01 09:22:25;;;;;;;22.80;13.43;;;;;;;4.29;76.75;102882.06;5029951;28;20222;-67
2021/03/01 09:24:51;;;;;;;24.40;13.27;;;;;;;4.31;76.55;102880.25;5022071;28;20233;-69
2021/03/01 09:27:30;;;;;;;22.27;14.43;;;;;;;4.30;76.67;102874.09;5023523;28;20202;-69
2021/03/01 09:30:01;;;;;;;20.43;11.77;;;;;;;4.34;76.71;102886.41;5013641;28;20199;-69
2021/03/01 09:32:28;;;;;;;20.07;13.00;;;;;;;4.35;76.13;102882.03;5063186;22;20241;-67
2021/03/01 09:34:54;;;;;;;23.27;13.03;;;;;;;4.35;76.16;102882.03;5035316;28;20202;-69
2021/03/01 09:37:24;;;;;;;24.03;12.67;;;;;;;4.36;76.04;102876.75;5035760;28;20584;-69
2021/03/01 09:39:50;;;;;;;32.60;15.40;;;;;;;4.37;76.21;102877.63;5036968;28;20244;-68
2021/03/01 09:42:17;;;;;;;26.93;14.93;;;;;;;4.39;76.71;102873.22;5037864;28;20254;-68
2021/03/01 09:44:45;;;;;;;25.77;14.00;;;;;;;4.41;76.25;102871.47;5037665;28;20591;-69
2021/03/01 09:47:12;;;;;;;28.27;14.17;;;;;;;4.44;76.05;102876.75;5038165;28;20204;-68
2021/03/01 09:49:41;;;;;;;24.13;13.67;;;;;;;4.47;76.27;102868.81;5038357;28;20205;-68
2021/03/01 09:52:08;;;;;;;19.93;12.07;;;;;;;4.50;75.94;102871.44;5037433;28;20218;-69
2021/03/01 09:54:35;;;;;;;20.37;12.90;;;;;;;4.53;75.48;102874.94;5041081;28;20205;-67
2021/03/01 09:57:06;;;;;;;20.80;12.67;;;;;;;4.53;75.84;102871.41;5036840;28;20209;-69
2021/03/01 09:59:34;;;;;;;24.53;13.33;;;;;;;4.53;75.31;102872.31;5045500;28;20206;-67
2021/03/01 10:02:11;;;;;;;26.63;13.23;;;;;;;4.57;75.50;102889.00;5046521;28;20346;-67
2021/03/01 10:04:37;;;;;;;22.87;12.77;;;;;;;4.61;76.05;102885.47;5041615;28;20202;-68
2021/03/01 10:07:16;;;;;;;21.67;12.77;;;;;;;4.63;75.38;102875.81;5040347;28;20296;-67
2021/03/01 10:09:42;;;;;;;27.60;14.83;;;;;;;4.67;75.13;102876.66;5038849;28;20198;-67
2021/03/01 10:12:09;;;;;;;24.30;14.40;;;;;;;4.70;75.06;102885.44;5035953;28;20570;-70
2021/03/01 10:14:36;;;;;;;25.10;15.23;;;;;;;4.71;75.09;102884.56;5039665;28;20672;-69
2021/03/01 10:17:14;;;;;;;19.67;11.63;;;;;;;4.73;74.93;102880.16;5041684;28;20574;-68
2021/03/01 10:19:40;;;;;;;18.47;11.67;;;;;;;4.76;74.81;102889.84;5041110;28;20256;-67
2021/03/01 10:22:06;;;;;;;21.30;11.47;;;;;;;4.77;75.16;102881.91;5033808;28;20222;-67
2021/03/01 10:24:43;;;;;;;15.47;9.57;;;;;;;4.84;74.79;102885.38;5039630;28;20613;-68
2021/03/01 10:27:10;;;;;;;18.57;10.50;;;;;;;4.87;74.83;102883.63;5045591;28;20745;-69
2021/03/01 10:29:37;;;;;;;17.87;11.03;;;;;;;4.91;74.40;102884.47;5041070;28;20571;-67
2021/03/01 10:32:16;;;;;;;18.53;10.43;;;;;;;4.95;74.93;102874.78;5043409;28;20236;-69
2021/03/01 10:34:42;;;;;;;17.80;9.90;;;;;;;4.96;74.72;102877.44;5042697;28;20221;-67
2021/03/01 10:37:11;;;;;;;15.33;10.30;;;;;;;4.99;74.68;102876.53;5040610;28;20201;-66
2021/03/01 10:39:38;;;;;;;12.73;8.87;;;;;;;5.01;74.51;102873.00;5044355;28;20201;-67
2021/03/01 10:42:11;;;;;;;18.27;10.67;;;;;;;5.00;74.57;102865.09;5037698;28;20221;-66
2021/03/01 10:44:40;;;;;;;18.43;9.27;;;;;;;5.03;73.97;102876.50;5033886;28;20743;-67
2021/03/01 10:47:14;;;;;;;19.13;9.37;;;;;;;5.07;74.22;102872.97;5039225;28;20237;-67
2021/03/01 10:49:42;;;;;;;16.90;10.10;;;;;;;5.09;74.10;102868.56;5036636;28;20198;-67
2021/03/01 10:52:09;;;;;;;13.13;8.97;;;;;;;5.12;74.32;102873.81;5036855;28;20229;-67
2021/03/01 10:54:36;;;;;;;18.43;10.47;;;;;;;5.16;74.28;102880.84;5035981;28;20201;-67
2021/03/01 10:57:02;;;;;;;13.93;9.40;;;;;;;5.20;74.04;102879.91;5039159;28;20758;-68
2021/03/01 10:59:29;;;;;;;17.23;9.43;;;;;;;5.27;74.14;102880.78;5034282;28;20216;-67
2021/03/01 11:01:55;;;;;;;15.40;9.50;;;;;;;5.31;74.45;102871.06;5036198;28;20226;-67
2021/03/01 11:04:21;;;;;;;13.53;8.77;;;;;;;5.34;73.82;102879.88;5038166;28;20573;-68
2021/03/01 11:06:49;;;;;;;13.33;8.43;;;;;;;5.35;73.86;102875.47;5033798;28;20214;-68
2021/03/01 11:09:16;;;;;;;14.13;8.50;;;;;;;5.35;73.48;102868.41;5035266;28;20252;-68
2021/03/01 11:11:43;;;;;;;13.27;8.87;;;;;;;5.38;73.55;102870.13;5037407;28;20229;-69
2021/03/01 11:14:11;;;;;;;12.43;7.90;;;;;;;5.38;73.09;102875.41;5033867;28;20222;-68
2021/03/01 11:16:38;;;;;;;12.83;7.73;;;;;;;5.32;72.76;102875.47;5038866;28;20233;-68
2021/03/01 11:19:05;;;;;;;12.33;8.17;;;;;;;5.23;72.62;102866.69;5036402;28;20213;-68
2021/03/01 11:21:31;;;;;;;11.17;7.83;;;;;;;5.20;73.30;102868.47;5038463;28;20226;-67
2021/03/01 11:23:58;;;;;;;15.23;8.90;;;;;;;5.18;73.03;102868.53;5045473;28;20198;-68
2021/03/01 11:26:24;;;;;;;14.57;8.90;;;;;;;5.21;73.49;102864.94;5041587;28;20272;-68